createdAt,value
2023-09-06T00:00:52.606Z,9.90
2023-09-06T00:03:19.817Z,5.87
2023-09-06T00:05:47.311Z,8.37
2023-09-06T00:08:16.168Z,6.00
2023-09-06T00:10:43.975Z,6.23
2023-09-06T00:13:13.137Z,8.43
2023-09-06T00:15:40.085Z,6.40
2023-09-06T00:18:07.919Z,6.77
2023-09-06T00:20:36.173Z,5.73
2023-09-06T00:23:05.892Z,8.70
2023-09-06T00:25:33.851Z,6.33
2023-09-06T00:28:04.920Z,6.57
2023-09-06T00:30:32.351Z,8.43
2023-09-06T00:33:00.694Z,6.20
2023-09-06T00:35:28.148Z,6.30
2023-09-06T00:37:55.712Z,5.50
2023-09-06T00:40:23.724Z,9.37
2023-09-06T00:43:01.825Z,5.67
2023-09-06T00:45:31.937Z,5.50
2023-09-06T00:48:00.014Z,7.27
2023-09-06T00:50:29.869Z,9.07
2023-09-06T00:52:57.816Z,8.20
2023-09-06T00:55:24.714Z,5.80
2023-09-06T00:57:51.974Z,5.97
2023-09-06T01:00:19.174Z,5.63
2023-09-06T01:02:46.837Z,6.37
2023-09-06T01:05:21.919Z,5.53
2023-09-06T01:08:22.249Z,5.93
2023-09-06T01:10:52.051Z,6.93
2023-09-06T01:13:19.115Z,7.17
2023-09-06T01:15:46.884Z,8.17
2023-09-06T01:18:15.274Z,6.33
2023-09-06T01:20:54.157Z,6.73
2023-09-06T01:23:41.236Z,8.83
2023-09-06T01:26:08.460Z,6.30
2023-09-06T01:28:35.837Z,9.73
2023-09-06T01:31:03.377Z,8.97
2023-09-06T01:33:31.010Z,9.37
2023-09-06T01:35:58.521Z,8.67
2023-09-06T01:38:25.805Z,8.57
2023-09-06T01:40:53.753Z,6.60
2023-09-06T01:43:20.562Z,6.93
2023-09-06T01:45:53.469Z,7.07
2023-09-06T01:48:20.490Z,6.73
2023-09-06T01:50:48.320Z,8.63
2023-09-06T01:53:15.426Z,5.87
2023-09-06T01:55:43.709Z,6.80
2023-09-06T01:58:11.447Z,7.13
2023-09-06T02:00:39.233Z,7.03
2023-09-06T02:03:08.125Z,6.50
2023-09-06T02:05:36.378Z,6.60
2023-09-06T02:08:06.075Z,6.20
2023-09-06T02:10:32.848Z,5.80
2023-09-06T02:13:00.144Z,6.60
2023-09-06T02:15:27.083Z,7.53
2023-09-06T02:17:53.846Z,5.60
2023-09-06T02:20:23.638Z,6.00
2023-09-06T02:22:53.104Z,6.87
2023-09-06T02:25:23.214Z,6.97
2023-09-06T02:27:50.495Z,7.33
2023-09-06T02:30:18.348Z,7.50
2023-09-06T02:32:45.201Z,8.67
2023-09-06T02:35:12.288Z,7.70
2023-09-06T02:37:39.080Z,7.67
2023-09-06T02:40:24.441Z,7.47
2023-09-06T02:42:52.552Z,8.83
2023-09-06T02:45:19.716Z,8.07
2023-09-06T02:47:51.228Z,8.20
2023-09-06T02:50:24.315Z,8.17
2023-09-06T02:52:54.329Z,7.27
2023-09-06T02:55:21.752Z,9.13
2023-09-06T02:57:50.691Z,9.47
2023-09-06T03:00:27.353Z,7.20
2023-09-06T03:03:08.543Z,7.57
2023-09-06T03:05:44.031Z,7.13
2023-09-06T03:08:14.792Z,7.30
2023-09-06T03:10:42.353Z,7.47
2023-09-06T03:13:10.378Z,10.40
2023-09-06T03:15:37.793Z,9.73
2023-09-06T03:18:06.353Z,7.40
2023-09-06T03:20:33.647Z,7.80
2023-09-06T03:23:20.776Z,9.27
2023-09-06T03:25:49.703Z,7.20
2023-09-06T03:28:19.733Z,7.30
2023-09-06T03:30:47.095Z,9.40
2023-09-06T03:33:14.063Z,8.60
2023-09-06T03:35:42.878Z,7.70
2023-09-06T03:38:09.934Z,9.80
2023-09-06T03:40:37.237Z,9.23
2023-09-06T03:43:16.682Z,10.53
2023-09-06T03:45:52.052Z,7.23
2023-09-06T03:48:21.826Z,9.03
2023-09-06T03:50:53.249Z,8.80
2023-09-06T03:53:20.203Z,8.00
2023-09-06T03:55:51.153Z,7.87
2023-09-06T03:58:18.024Z,7.97
2023-09-06T04:00:45.911Z,8.87
2023-09-06T04:03:15.487Z,8.43
2023-09-06T04:05:45.229Z,7.70
2023-09-06T04:08:12.686Z,8.03
2023-09-06T04:10:39.989Z,10.77
2023-09-06T04:13:12.089Z,10.23
2023-09-06T04:15:39.860Z,8.50
2023-09-06T04:18:08.517Z,10.37
2023-09-06T04:24:56.023Z,8.27
2023-09-06T04:27:22.794Z,9.23
2023-09-06T04:29:49.456Z,7.27
2023-09-06T04:32:18.447Z,8.50
2023-09-06T04:34:45.650Z,9.47
2023-09-06T04:37:14.251Z,9.63
2023-09-06T04:39:44.550Z,7.93
2023-09-06T04:42:18.015Z,10.63
2023-09-06T04:44:45.771Z,9.00
2023-09-06T04:47:16.224Z,10.10
2023-09-06T04:49:47.034Z,7.50
2023-09-06T04:52:13.749Z,8.17
2023-09-06T04:54:40.551Z,9.70
2023-09-06T04:57:09.373Z,7.73
2023-09-06T04:59:37.771Z,10.63
2023-09-06T05:02:04.771Z,8.33
2023-09-06T05:04:31.837Z,9.80
2023-09-06T05:06:58.524Z,8.47
2023-09-06T05:09:25.224Z,9.77
2023-09-06T05:11:51.919Z,8.93
2023-09-06T05:14:20.109Z,9.53
2023-09-06T05:16:47.052Z,7.20
2023-09-06T05:19:13.879Z,8.27
2023-09-06T05:21:40.986Z,7.50
2023-09-06T05:24:07.827Z,10.50
2023-09-06T05:26:34.811Z,8.20
2023-09-06T05:29:01.550Z,8.70
2023-09-06T05:31:28.416Z,9.10
2023-09-06T05:33:55.284Z,9.40
2023-09-06T05:36:22.465Z,8.13
2023-09-06T05:38:49.190Z,9.23
2023-09-06T05:41:16.660Z,8.40
2023-09-06T05:43:43.593Z,8.50
2023-09-06T05:46:29.674Z,7.97
2023-09-06T05:48:56.994Z,10.20
2023-09-06T05:51:23.801Z,8.10
2023-09-06T05:53:50.559Z,11.77
2023-09-06T05:56:17.514Z,8.53
2023-09-06T05:58:44.288Z,8.07
2023-09-06T06:01:12.848Z,10.93
2023-09-06T06:03:40.562Z,7.87
2023-09-06T06:06:11.909Z,9.47
2023-09-06T06:08:39.110Z,7.97
2023-09-06T06:11:06.213Z,8.83
2023-09-06T06:13:33.406Z,10.30
2023-09-06T06:16:00.356Z,8.27
2023-09-06T06:18:27.745Z,9.17
2023-09-06T06:20:55.975Z,9.53
2023-09-06T06:23:22.800Z,8.93
2023-09-06T06:25:49.589Z,8.63
2023-09-06T06:28:16.944Z,9.30
2023-09-06T06:30:43.984Z,11.13
2023-09-06T06:33:11.193Z,9.20
2023-09-06T06:35:38.177Z,10.33
2023-09-06T06:38:05.652Z,10.03
2023-09-06T06:40:36.834Z,9.20
2023-09-06T06:43:03.904Z,10.37
2023-09-06T06:45:30.632Z,8.23
2023-09-06T06:47:57.478Z,8.03
2023-09-06T06:50:24.553Z,7.53
2023-09-06T06:52:51.347Z,8.77
2023-09-06T06:55:18.413Z,8.33
2023-09-06T06:57:45.796Z,7.67
2023-09-06T07:00:13.038Z,8.20
2023-09-06T07:02:40.080Z,7.40
2023-09-06T07:05:07.238Z,8.63
2023-09-06T07:07:34.137Z,7.53
2023-09-06T07:10:00.922Z,6.97
2023-09-06T07:12:27.762Z,7.10
2023-09-06T07:14:55.262Z,8.50
2023-09-06T07:17:22.321Z,7.05
2023-09-06T07:19:49.197Z,8.98
2023-09-06T07:22:16.213Z,8.15
2023-09-06T07:24:42.968Z,6.63
2023-09-06T07:27:09.728Z,7.82
2023-09-06T07:29:36.521Z,5.80
2023-09-06T07:32:04.397Z,6.03
2023-09-06T07:34:31.749Z,6.10
2023-09-06T07:36:58.931Z,7.35
2023-09-06T07:39:25.682Z,5.47
2023-09-06T07:41:54.429Z,5.10
2023-09-06T07:44:21.150Z,4.70
2023-09-06T07:46:49.873Z,5.80
2023-09-06T07:51:44.775Z,5.25
2023-09-06T07:59:10.021Z,4.20
2023-09-06T08:01:37.271Z,4.50
2023-09-06T08:04:04.427Z,4.10
2023-09-06T08:08:59.499Z,6.10
2023-09-06T08:16:20.484Z,4.65
2023-09-06T08:18:48.260Z,3.65
2023-09-06T08:21:17.151Z,4.78
2023-09-06T08:23:44.808Z,4.22
2023-09-06T08:26:12.791Z,3.58
2023-09-06T08:28:39.919Z,5.30
2023-09-06T08:31:07.234Z,4.32
2023-09-06T08:33:34.758Z,4.10
2023-09-06T08:36:01.975Z,3.78
2023-09-06T08:38:29.328Z,3.28
2023-09-06T08:40:56.329Z,4.47
2023-09-06T08:43:24.623Z,5.15
2023-09-06T08:45:52.898Z,4.50
2023-09-06T08:48:20.019Z,6.68
2023-09-06T08:50:47.716Z,6.15
2023-09-06T08:53:17.496Z,5.53
2023-09-06T08:55:45.615Z,4.10
2023-09-06T08:58:12.805Z,4.43
2023-09-06T09:03:06.963Z,5.40
2023-09-06T09:05:33.934Z,4.30
2023-09-06T09:18:01.974Z,5.10
2023-09-06T10:53:37.668Z,3.78
2023-09-06T10:56:06.538Z,3.90
2023-09-06T10:58:38.358Z,3.80
2023-09-06T11:01:14.142Z,5.28
2023-09-06T11:03:56.041Z,3.30
2023-09-06T11:06:25.386Z,4.18
2023-09-06T11:08:54.224Z,3.55
2023-09-06T11:11:22.146Z,3.42
2023-09-06T11:13:49.004Z,4.25
2023-09-06T11:16:19.688Z,4.53
2023-09-06T11:18:48.455Z,3.80
2023-09-06T11:21:24.214Z,3.25
2023-09-06T11:23:53.491Z,4.13
2023-09-06T11:26:20.642Z,4.00
2023-09-06T11:28:48.836Z,3.92
2023-09-06T11:31:30.605Z,3.55
2023-09-06T11:34:05.443Z,7.07
2023-09-06T11:36:34.941Z,3.38
2023-09-06T11:39:20.016Z,4.68
2023-09-06T11:41:48.854Z,3.47
2023-09-06T11:44:18.880Z,3.75
2023-09-06T11:46:48.210Z,3.65
2023-09-06T11:49:16.777Z,3.97
2023-09-06T11:51:45.126Z,4.85
2023-09-06T11:54:13.210Z,4.20
2023-09-06T11:56:44.150Z,3.30
2023-09-06T11:59:14.109Z,3.40
2023-09-06T12:01:42.034Z,3.03
2023-09-06T12:04:11.574Z,4.85
2023-09-06T12:06:42.715Z,2.97
2023-09-06T12:09:13.560Z,5.78
2023-09-06T12:11:41.004Z,3.10
2023-09-06T12:14:12.529Z,3.80
2023-09-06T12:16:40.633Z,3.28
2023-09-06T12:19:14.942Z,3.95
2023-09-06T12:21:41.928Z,6.10
2023-09-06T12:24:08.871Z,4.75
2023-09-06T12:26:35.744Z,3.78
2023-09-06T12:29:08.579Z,3.22
2023-09-06T12:31:35.781Z,3.65
2023-09-06T12:34:05.043Z,3.10
2023-09-06T12:36:36.493Z,7.22
2023-09-06T12:39:07.698Z,4.20
2023-09-06T12:41:34.798Z,2.55
2023-09-06T12:44:01.876Z,2.67
2023-09-06T12:46:28.958Z,3.20
2023-09-06T12:48:56.079Z,2.50
2023-09-06T12:51:22.896Z,2.17
2023-09-06T12:53:51.013Z,2.90
2023-09-06T12:56:20.065Z,3.08
2023-09-06T12:58:47.023Z,2.58
2023-09-06T13:01:15.816Z,2.50
2023-09-06T13:03:44.269Z,2.38
2023-09-06T13:06:11.219Z,2.40
2023-09-06T13:08:38.084Z,2.50
2023-09-06T13:11:05.077Z,2.50
2023-09-06T13:13:31.852Z,1.83
2023-09-06T13:15:58.961Z,2.13
2023-09-06T13:18:26.557Z,2.42
2023-09-06T13:20:58.416Z,3.47
2023-09-06T13:23:25.258Z,2.75
2023-09-06T13:25:52.148Z,3.42
2023-09-06T13:28:18.981Z,3.08
2023-09-06T13:30:45.777Z,5.10
2023-09-06T13:33:12.769Z,2.70
2023-09-06T13:35:39.555Z,3.53
2023-09-06T13:38:08.519Z,3.65
2023-09-06T13:40:35.878Z,3.95
2023-09-06T13:43:03.344Z,4.25
2023-09-06T13:45:30.836Z,3.38
2023-09-06T13:47:58.843Z,2.70
2023-09-06T13:50:25.803Z,4.40
2023-09-06T13:52:52.692Z,1.60
2023-09-06T13:55:19.654Z,3.83
2023-09-06T13:57:46.560Z,1.73
2023-09-06T14:00:13.930Z,3.42
2023-09-06T14:02:41.097Z,2.83
2023-09-06T14:05:08.578Z,5.22
2023-09-06T14:07:35.445Z,5.00
2023-09-06T14:10:02.352Z,4.70
2023-09-06T14:12:29.900Z,2.95
2023-09-06T14:14:57.923Z,2.13
2023-09-06T14:17:25.051Z,5.63
2023-09-06T14:19:52.167Z,3.83
2023-09-06T14:22:18.984Z,3.38
2023-09-06T14:24:45.862Z,3.10
2023-09-06T14:27:14.749Z,2.78
2023-09-06T14:29:42.162Z,6.95
2023-09-06T14:32:09.242Z,4.82
2023-09-06T14:34:36.080Z,4.25
2023-09-06T14:37:04.787Z,3.95
2023-09-06T14:39:33.664Z,2.92
2023-09-06T14:42:00.568Z,3.63
2023-09-06T14:44:27.566Z,3.42
2023-09-06T14:46:54.570Z,4.63
2023-09-06T14:49:21.695Z,3.25
2023-09-06T14:51:48.455Z,1.90
2023-09-06T14:54:15.198Z,3.08
2023-09-06T14:56:42.351Z,3.67
2023-09-06T14:59:09.106Z,3.17
2023-09-06T15:01:39.742Z,3.22
2023-09-06T15:04:07.454Z,4.65
2023-09-06T15:06:52.369Z,4.43
2023-09-06T15:09:22.025Z,4.65
2023-09-06T15:11:49.889Z,2.97
2023-09-06T15:14:17.140Z,4.75
2023-09-06T15:16:45.041Z,4.30
2023-09-06T15:19:11.923Z,2.75
2023-09-06T15:21:43.391Z,2.95
2023-09-06T15:24:10.653Z,2.53
2023-09-06T15:26:38.224Z,3.70
2023-09-06T15:29:05.063Z,3.42
2023-09-06T15:31:32.240Z,7.18
2023-09-06T15:33:59.465Z,5.13
2023-09-06T15:36:31.206Z,1.95
2023-09-06T15:38:58.185Z,2.25
2023-09-06T15:41:25.136Z,3.40
2023-09-06T15:43:51.884Z,3.25
2023-09-06T15:46:19.349Z,4.20
2023-09-06T15:48:46.290Z,3.28
2023-09-06T15:51:13.356Z,3.97
2023-09-06T15:53:40.352Z,7.65
2023-09-06T15:56:07.304Z,5.47
2023-09-06T15:58:34.050Z,3.83
2023-09-06T16:01:05.276Z,5.43
2023-09-06T16:03:33.047Z,9.38
2023-09-06T16:06:00.012Z,2.13
2023-09-06T16:08:26.969Z,3.05
2023-09-06T16:10:53.864Z,2.35
2023-09-06T16:13:20.987Z,3.60
2023-09-06T16:15:47.921Z,3.40
2023-09-06T16:18:15.368Z,3.97
2023-09-06T16:20:43.629Z,3.67
2023-09-06T16:23:11.127Z,5.18
2023-09-06T16:25:38.292Z,4.63
2023-09-06T16:28:06.327Z,2.53
2023-09-06T16:30:37.448Z,3.58
2023-09-06T16:33:04.725Z,4.80
2023-09-06T16:35:32.891Z,3.53
2023-09-06T16:38:01.571Z,3.92
2023-09-06T16:40:28.480Z,2.58
2023-09-06T16:42:55.998Z,4.32
2023-09-06T16:45:23.035Z,3.38
2023-09-06T16:47:51.852Z,3.90
2023-09-06T16:50:19.253Z,3.00
2023-09-06T16:52:46.420Z,3.15
2023-09-06T16:55:13.447Z,3.15
2023-09-06T16:57:40.302Z,1.95
2023-09-06T17:00:09.266Z,2.15
2023-09-06T17:02:39.132Z,1.70
2023-09-06T17:05:06.773Z,2.08
2023-09-06T17:07:38.792Z,2.58
2023-09-06T17:10:09.318Z,2.33
2023-09-06T17:12:37.098Z,3.13
2023-09-06T17:15:17.068Z,2.05
2023-09-06T17:17:44.335Z,2.45
2023-09-06T17:20:13.252Z,2.53
2023-09-06T17:22:40.028Z,2.17
2023-09-06T17:25:10.207Z,2.45
2023-09-06T17:27:37.797Z,2.20
2023-09-06T17:30:11.638Z,3.78
2023-09-06T17:32:42.050Z,5.00
2023-09-06T17:35:11.379Z,2.25
2023-09-06T17:37:38.217Z,1.85
2023-09-06T17:40:11.890Z,3.55
2023-09-06T17:42:39.854Z,2.42
2023-09-06T17:45:13.507Z,2.25
2023-09-06T17:47:43.050Z,2.55
2023-09-06T17:50:10.640Z,3.00
2023-09-06T17:52:40.513Z,2.30
2023-09-06T17:55:07.946Z,6.47
2023-09-06T17:57:35.494Z,2.95
2023-09-06T18:00:02.703Z,1.95
2023-09-06T18:02:31.315Z,2.17
2023-09-06T18:04:58.400Z,2.58
2023-09-06T18:07:25.337Z,4.03
2023-09-06T18:09:52.518Z,3.10
2023-09-06T18:12:19.362Z,3.92
2023-09-06T18:14:49.865Z,6.95
2023-09-06T18:17:17.101Z,2.63
2023-09-06T18:19:44.021Z,4.90
2023-09-06T18:22:12.968Z,2.60
2023-09-06T18:24:41.512Z,2.78
2023-09-06T18:27:10.592Z,2.40
2023-09-06T18:29:38.133Z,2.55
2023-09-06T18:32:07.539Z,7.72
2023-09-06T18:34:34.528Z,4.68
2023-09-06T18:37:01.362Z,5.78
2023-09-06T18:39:28.151Z,3.30
2023-09-06T18:41:54.978Z,6.20
2023-09-06T18:44:21.741Z,5.40
2023-09-06T18:46:48.528Z,5.53
2023-09-06T18:49:15.333Z,4.75
2023-09-06T18:51:42.068Z,4.65
2023-09-06T18:54:08.876Z,4.55
2023-09-06T18:56:36.428Z,5.97
2023-09-06T18:59:03.407Z,3.47
2023-09-06T19:01:30.153Z,3.40
2023-09-06T19:03:57.107Z,3.30
2023-09-06T19:06:25.328Z,4.68
2023-09-06T19:08:52.080Z,4.00
2023-09-06T19:11:19.058Z,3.10
2023-09-06T19:13:45.857Z,4.95
2023-09-06T19:16:12.621Z,5.05
2023-09-06T19:18:39.808Z,4.00
2023-09-06T19:21:06.658Z,4.28
2023-09-06T19:23:33.603Z,3.28
2023-09-06T19:26:03.011Z,6.88
2023-09-06T19:28:30.867Z,3.80
2023-09-06T19:31:00.274Z,4.65
2023-09-06T19:33:28.043Z,3.60
2023-09-06T19:35:56.056Z,4.22
2023-09-06T19:38:26.058Z,5.00
2023-09-06T19:40:54.922Z,4.80
2023-09-06T19:43:22.673Z,4.63
2023-09-06T19:45:56.761Z,4.80
2023-09-06T19:48:24.407Z,4.82
2023-09-06T19:50:51.763Z,4.22
2023-09-06T19:53:18.904Z,3.42
2023-09-06T19:55:48.992Z,6.68
2023-09-06T19:58:15.854Z,4.53
2023-09-06T20:00:42.604Z,4.00
2023-09-06T20:03:10.709Z,3.60
2023-09-06T20:05:37.982Z,3.92
2023-09-06T20:08:05.092Z,4.20
2023-09-06T20:10:31.887Z,3.93
2023-09-06T20:12:58.654Z,6.95
2023-09-06T20:15:29.392Z,4.00
2023-09-06T20:17:56.381Z,6.20
2023-09-06T20:20:23.247Z,5.90
2023-09-06T20:22:50.006Z,5.03
2023-09-06T20:25:16.834Z,7.50
2023-09-06T20:27:43.540Z,6.28
2023-09-06T20:30:12.029Z,8.50
2023-09-06T20:32:39.034Z,5.93
2023-09-06T20:35:06.092Z,9.32
2023-09-06T20:37:32.922Z,5.85
2023-09-06T20:39:59.873Z,5.93
2023-09-06T20:42:27.461Z,7.45
2023-09-06T20:44:54.269Z,6.00
2023-09-06T20:47:21.179Z,6.97
2023-09-06T20:49:48.730Z,7.57
2023-09-06T20:52:16.436Z,5.70
2023-09-06T20:54:43.481Z,8.47
2023-09-06T20:57:10.229Z,7.07
2023-09-06T20:59:36.959Z,5.73
2023-09-06T21:02:03.881Z,5.97
2023-09-06T21:04:30.798Z,9.18
2023-09-06T21:06:57.672Z,6.47
2023-09-06T21:09:24.383Z,7.17
2023-09-06T21:11:51.958Z,5.77
2023-09-06T21:14:20.184Z,5.97
2023-09-06T21:16:47.513Z,5.73
2023-09-06T21:19:14.355Z,4.63
2023-09-06T21:21:41.742Z,6.23
2023-09-06T21:24:09.781Z,5.40
2023-09-06T21:26:39.919Z,5.77
2023-09-06T21:29:18.092Z,5.03
2023-09-06T21:31:49.026Z,7.53
2023-09-06T21:34:16.027Z,5.70
2023-09-06T21:36:42.890Z,5.63
2023-09-06T21:39:10.813Z,5.70
2023-09-06T21:41:37.588Z,5.40
2023-09-06T21:44:04.687Z,5.10
2023-09-06T21:46:31.526Z,6.77
2023-09-06T21:48:58.277Z,5.43
2023-09-06T21:51:25.034Z,4.67
2023-09-06T21:53:51.753Z,5.57
2023-09-06T21:56:18.753Z,6.57
2023-09-06T21:58:45.634Z,7.33
2023-09-06T22:01:12.943Z,5.70
2023-09-06T22:03:39.758Z,6.13
2023-09-06T22:06:06.979Z,5.50
2023-09-06T22:08:33.898Z,5.67
2023-09-06T22:11:00.874Z,7.20
2023-09-06T22:13:27.628Z,7.10
2023-09-06T22:15:55.682Z,4.90
2023-09-06T22:18:22.467Z,5.83
2023-09-06T22:20:49.284Z,7.37
2023-09-06T22:23:18.212Z,5.77
2023-09-06T22:25:45.141Z,6.33
2023-09-06T22:28:13.122Z,6.10
2023-09-06T22:30:43.708Z,5.13
2023-09-06T22:33:10.602Z,5.50
2023-09-06T22:35:37.727Z,5.67
2023-09-06T22:38:04.549Z,5.87
2023-09-06T22:40:31.260Z,5.63
2023-09-06T22:42:58.077Z,8.53
2023-09-06T22:45:24.830Z,7.07
2023-09-06T22:47:51.645Z,6.93
2023-09-06T22:50:18.561Z,6.07
2023-09-06T22:52:45.478Z,6.37
2023-09-06T22:55:12.426Z,5.70
2023-09-06T22:57:39.181Z,6.87
2023-09-06T23:00:08.810Z,5.90
2023-09-06T23:02:35.941Z,5.93
2023-09-06T23:05:02.867Z,6.90
2023-09-06T23:07:29.588Z,6.90
2023-09-06T23:09:56.502Z,8.63
2023-09-06T23:12:23.363Z,5.77
2023-09-06T23:14:50.363Z,5.50
2023-09-06T23:17:22.766Z,5.70
2023-09-06T23:19:54.089Z,8.23
2023-09-06T23:22:23.662Z,5.87
2023-09-06T23:24:53.276Z,5.50
2023-09-06T23:27:24.294Z,6.30
2023-09-06T23:29:55.922Z,6.37
2023-09-06T23:32:26.275Z,5.83
2023-09-06T23:34:55.274Z,7.10
2023-09-06T23:37:22.405Z,5.93
2023-09-06T23:39:50.006Z,7.20
2023-09-06T23:42:18.202Z,5.93
2023-09-06T23:44:46.984Z,5.93
2023-09-06T23:47:14.765Z,7.43
2023-09-06T23:49:43.946Z,6.33
2023-09-06T23:52:11.228Z,7.83
2023-09-06T23:54:47.313Z,5.90
2023-09-06T23:57:16.227Z,6.53
2023-09-06T23:59:42.963Z,7.40
